createdAt,value
2018-01-16T00:00:35.406Z,11.80
2018-01-16T00:03:03.624Z,9.50
2018-01-16T00:05:31.833Z,11.93
2018-01-16T00:08:00.913Z,9.87
2018-01-16T00:10:29.133Z,16.23
2018-01-16T00:12:57.350Z,16.67
2018-01-16T00:15:26.377Z,11.23
2018-01-16T00:17:54.600Z,15.60
2018-01-16T00:20:23.121Z,22.13
2018-01-16T00:22:52.109Z,13.80
2018-01-16T00:25:21.125Z,12.63
2018-01-16T00:27:49.397Z,13.93
2018-01-16T00:30:17.621Z,14.90
2018-01-16T00:32:46.241Z,16.40
2018-01-16T00:35:15.233Z,13.03
2018-01-16T00:37:43.470Z,12.03
2018-01-16T00:40:11.686Z,14.93
2018-01-16T00:42:40.766Z,11.47
2018-01-16T00:45:09.066Z,17.90
2018-01-16T00:47:38.067Z,16.60
2018-01-16T00:50:07.039Z,12.27
2018-01-16T00:52:36.030Z,14.00
2018-01-16T00:55:05.033Z,14.73
2018-01-16T00:57:33.894Z,12.23
2018-01-16T01:00:02.890Z,13.93
2018-01-16T01:02:31.913Z,18.47
2018-01-16T01:05:00.129Z,15.80
2018-01-16T01:07:28.424Z,15.57
2018-01-16T01:09:57.564Z,15.67
2018-01-16T01:12:25.788Z,17.63
2018-01-16T01:14:54.029Z,15.03
2018-01-16T01:17:22.251Z,16.73
2018-01-16T01:19:50.469Z,16.60
2018-01-16T01:22:19.493Z,10.70
2018-01-16T01:24:47.684Z,11.67
2018-01-16T01:27:15.905Z,9.77
2018-01-16T01:29:44.129Z,11.17
2018-01-16T01:32:12.348Z,12.47
2018-01-16T01:34:40.599Z,14.33
2018-01-16T01:37:08.813Z,14.23
2018-01-16T01:39:37.051Z,10.70
2018-01-16T01:42:06.033Z,15.77
2018-01-16T01:44:34.257Z,13.37
2018-01-16T01:47:02.465Z,17.33
2018-01-16T01:49:30.711Z,18.70
2018-01-16T01:51:58.981Z,15.40
2018-01-16T01:54:27.145Z,13.50
2018-01-16T01:56:55.378Z,12.00
2018-01-16T01:59:23.584Z,14.20
2018-01-16T02:01:51.804Z,13.80
2018-01-16T02:04:20.817Z,16.97
2018-01-16T02:06:49.043Z,17.50
2018-01-16T02:09:17.287Z,15.50
2018-01-16T02:11:45.518Z,16.20
2018-01-16T02:14:13.753Z,17.90
2018-01-16T02:16:41.993Z,11.43
2018-01-16T02:19:10.198Z,13.10
2018-01-16T02:21:38.476Z,18.80
2018-01-16T02:24:06.681Z,15.33
2018-01-16T02:26:34.892Z,16.20
2018-01-16T02:29:03.920Z,13.10
2018-01-16T02:31:32.141Z,15.63
2018-01-16T02:34:00.394Z,16.70
2018-01-16T02:36:28.601Z,18.20
2018-01-16T02:38:56.835Z,21.40
2018-01-16T02:41:25.065Z,25.30
2018-01-16T02:43:54.070Z,23.53
2018-01-16T02:46:23.069Z,22.43
2018-01-16T02:48:53.369Z,22.23
2018-01-16T02:51:21.761Z,15.47
2018-01-16T02:53:50.746Z,16.67
2018-01-16T02:56:20.049Z,15.47
2018-01-16T02:58:48.285Z,19.90
2018-01-16T03:01:16.507Z,20.50
2018-01-16T03:03:44.752Z,15.77
2018-01-16T03:06:12.982Z,19.33
2018-01-16T03:08:41.204Z,16.67
2018-01-16T03:11:09.418Z,16.80
2018-01-16T03:13:37.695Z,17.40
2018-01-16T03:16:05.919Z,20.23
2018-01-16T03:18:35.339Z,20.10
2018-01-16T03:21:03.565Z,18.93
2018-01-16T03:23:31.797Z,18.87
2018-01-16T03:26:01.094Z,18.40
2018-01-16T03:28:30.076Z,17.90
2018-01-16T03:30:58.309Z,19.63
2018-01-16T03:33:26.525Z,19.40
2018-01-16T03:35:55.516Z,20.53
2018-01-16T03:38:24.913Z,21.87
2018-01-16T03:40:53.150Z,21.27
2018-01-16T03:43:21.385Z,26.53
2018-01-16T03:45:49.636Z,24.90
2018-01-16T03:48:17.851Z,22.13
2018-01-16T03:50:46.417Z,22.83
2018-01-16T03:53:15.389Z,20.07
2018-01-16T03:55:43.601Z,20.60
2018-01-16T03:58:11.824Z,20.73
2018-01-16T04:00:40.042Z,19.60
2018-01-16T04:03:08.277Z,21.30
2018-01-16T04:05:36.489Z,17.80
2018-01-16T04:08:04.724Z,24.90
2018-01-16T04:10:32.932Z,23.87
2018-01-16T04:13:01.173Z,24.00
2018-01-16T04:15:29.392Z,20.17
2018-01-16T04:17:57.629Z,22.47
2018-01-16T04:20:25.852Z,22.83
2018-01-16T04:22:54.113Z,21.43
2018-01-16T04:25:22.337Z,25.00
2018-01-16T04:27:50.560Z,19.70
2018-01-16T04:30:18.856Z,22.43
2018-01-16T04:32:47.075Z,23.77
2018-01-16T04:35:15.285Z,25.87
2018-01-16T04:37:43.550Z,20.37
2018-01-16T04:40:12.548Z,18.60
2018-01-16T04:42:41.544Z,20.83
2018-01-16T04:45:09.765Z,17.93
2018-01-16T04:47:37.994Z,16.67
2018-01-16T04:50:06.989Z,24.20
2018-01-16T04:52:35.200Z,20.03
2018-01-16T04:55:04.261Z,22.63
2018-01-16T04:57:32.481Z,18.47
2018-01-16T05:00:00.722Z,17.33
2018-01-16T05:02:28.941Z,16.77
2018-01-16T05:04:57.979Z,24.17
2018-01-16T05:07:26.205Z,17.97
2018-01-16T05:09:54.828Z,21.50
2018-01-16T05:12:23.000Z,18.90
2018-01-16T05:14:51.246Z,17.67
2018-01-16T05:17:19.458Z,22.60
2018-01-16T05:19:47.704Z,18.80
2018-01-16T05:22:16.685Z,15.30
2018-01-16T05:24:44.921Z,19.40
2018-01-16T05:27:13.129Z,16.83
2018-01-16T05:29:41.342Z,20.97
2018-01-16T05:32:09.572Z,18.70
2018-01-16T05:34:37.784Z,19.17
2018-01-16T05:37:06.765Z,18.90
2018-01-16T05:39:34.973Z,17.53
2018-01-16T05:42:03.217Z,19.57
2018-01-16T05:44:32.194Z,19.90
2018-01-16T05:47:00.437Z,20.03
2018-01-16T05:49:28.648Z,21.73
2018-01-16T05:51:57.650Z,18.10
2018-01-16T05:54:26.633Z,19.77
2018-01-16T05:56:54.883Z,21.67
2018-01-16T05:59:23.099Z,21.50
2018-01-16T06:01:51.289Z,21.57
2018-01-16T06:04:19.561Z,19.07
2018-01-16T06:06:47.841Z,17.50
2018-01-16T06:09:16.117Z,18.57
2018-01-16T06:11:44.341Z,19.67
2018-01-16T06:14:12.657Z,17.83
2018-01-16T06:16:40.901Z,18.20
2018-01-16T06:19:09.137Z,20.00
2018-01-16T06:21:37.376Z,18.80
2018-01-16T06:24:06.368Z,16.33
2018-01-16T06:26:34.612Z,21.80
2018-01-16T06:29:02.861Z,17.47
2018-01-16T06:31:31.077Z,17.67
2018-01-16T06:34:00.134Z,18.27
2018-01-16T06:36:29.062Z,19.03
2018-01-16T06:38:58.065Z,19.97
2018-01-16T06:41:27.046Z,14.57
2018-01-16T06:43:55.297Z,18.60
2018-01-16T06:46:23.529Z,17.90
2018-01-16T06:48:51.772Z,19.20
2018-01-16T06:51:19.976Z,20.03
2018-01-16T06:53:48.214Z,20.10
2018-01-16T06:56:16.487Z,17.87
2018-01-16T06:58:44.729Z,11.83
2018-01-16T07:01:12.937Z,15.50
2018-01-16T07:03:41.153Z,14.03
2018-01-16T07:06:09.392Z,16.07
2018-01-16T07:08:38.398Z,13.10
2018-01-16T07:11:07.409Z,14.00
2018-01-16T07:13:35.629Z,13.70
2018-01-16T07:16:03.848Z,12.27
2018-01-16T07:18:32.073Z,11.00
2018-01-16T07:21:00.318Z,11.10
2018-01-16T07:23:28.616Z,10.70
2018-01-16T07:25:56.880Z,13.37
2018-01-16T07:28:25.107Z,8.40
2018-01-16T07:30:54.087Z,9.00
2018-01-16T07:33:22.313Z,6.57
2018-01-16T07:35:50.522Z,8.97
2018-01-16T07:38:18.753Z,9.07
2018-01-16T07:40:47.864Z,10.67
2018-01-16T07:43:16.107Z,10.77
2018-01-16T07:45:44.341Z,10.20
2018-01-16T07:48:12.564Z,20.37
2018-01-16T07:50:40.837Z,10.23
2018-01-16T07:53:09.825Z,10.30
2018-01-16T07:55:38.824Z,11.20
2018-01-16T07:58:07.047Z,10.87
2018-01-16T08:00:35.293Z,10.33
2018-01-16T08:03:03.501Z,10.57
2018-01-16T08:05:31.753Z,13.20
2018-01-16T08:07:59.965Z,11.67
2018-01-16T08:10:28.558Z,10.90
2018-01-16T08:12:57.541Z,12.90
2018-01-16T08:15:26.533Z,12.67
2018-01-16T08:17:55.549Z,12.73
2018-01-16T08:20:24.519Z,11.77
2018-01-16T08:22:53.521Z,10.00
2018-01-16T08:25:22.510Z,12.63
2018-01-16T08:27:51.500Z,12.07
2018-01-16T08:30:20.477Z,9.30
2018-01-16T08:32:48.701Z,8.60
2018-01-16T08:35:16.920Z,11.20
2018-01-16T08:37:45.167Z,12.30
2018-01-16T08:40:13.376Z,10.97
2018-01-16T08:42:41.588Z,10.23
2018-01-16T08:45:10.576Z,11.90
2018-01-16T08:47:38.831Z,10.03
2018-01-16T08:50:07.830Z,11.30
2018-01-16T08:52:36.073Z,8.13
2018-01-16T08:55:04.280Z,9.57
2018-01-16T08:57:33.289Z,11.83
2018-01-16T09:00:02.270Z,12.03
2018-01-16T09:02:30.462Z,10.00
2018-01-16T09:04:59.455Z,12.73
2018-01-16T09:07:27.671Z,11.67
2018-01-16T09:09:55.957Z,11.83
2018-01-16T09:12:24.968Z,12.30
2018-01-16T09:14:53.977Z,12.80
2018-01-16T09:17:22.955Z,13.47
2018-01-16T09:19:51.178Z,12.57
2018-01-16T09:22:19.413Z,13.23
2018-01-16T09:24:48.389Z,10.63
2018-01-16T09:27:16.621Z,11.70
2018-01-16T09:29:44.832Z,13.27
2018-01-16T09:32:13.071Z,16.23
2018-01-16T09:34:41.288Z,11.80
2018-01-16T09:37:10.289Z,13.33
2018-01-16T09:39:39.269Z,12.10
2018-01-16T09:42:07.489Z,12.97
2018-01-16T09:44:35.720Z,15.57
